19:53
Airports
History
Links
Donate
Help keep this website running!
PayPal
Bitcoin
Information on this page is community maintained and may be outdated or inaccurate and is intended for reference only or PC simulator navigating!
Always use approved charts for navigating.
0B2
BrewerUpdated 21-May-2014
Brewer (0B2)
Brewer, Maine, United States (4412)
4
Lat/Lng:44° 45' 49.8" N / 68° 46' 4.3" W
44.763833 / -68.767861
Elevation:125'ft 38mMSL
Declination:W019°
ID / ICAO:0B2
FAA:0B2
Runways:1
Longest:(01-19) 547.2m 1,795ft Grass
Distance To
Airport ID:
Nearby VORs <50NM
Nearby NDBs
Nearby WeatherUpdated 03-24-17 19:34 GMT
Nearby weather at KBGR, Bangor Intl located 4.2 nautical miles from 0B2
Altimeter: 30.20
Visibility: 1.5 statute miles
Wind: 10 knots (190°)
Temp: -1°c 30°f
Humidity: 86.2%

METAR: KBGR 241934Z 19010KT 1 1/2SM -SN BR BKN020 BKN026 OVC055 M01/M03 A3020 RMK AO2 P0000 T10061028

(Powered by phpweather)
Runway 01 / 19
Dimensions:547.2 x 30.5m 1795' x 100'ft
Surface:Grass
Runway 01 [A]Runway 19 [B]
Heading:010°MH  351°TH190°MH   171°TH
Lat:
Lng:
44° 45' 40.48"N
68° 46' 2.17"W
44° 45' 58.04"N
68° 46' 6.09"W
Google Map
Nearby Airports
(C) Bangor Intl 4.2 NM
KBGR (WX) NW 315°
(U) Dewitt Fld,old Town Muni 13.8 NM
KOLD NNE 19°
4 Ring Hill 15.0 NM
38B W 277°
(R) Terra B & B 16.5 NM
ME35 NW 314°
(R) Newport Sky Park 23.4 NM
ME68 W 279°
4 Blue Hill 23.9 NM
07B SSE 155°
(U) Belfast Muni 27.3 NM
KBST SSW 206°
VFR Chart
Flight Planning at SkyVector.com